createdAt,value
2022-12-11T00:00:41.087Z,-2.22
2022-12-11T00:03:15.906Z,-2.10
2022-12-11T00:05:43.851Z,-2.26
2022-12-11T00:08:11.230Z,-2.40
2022-12-11T00:10:40.428Z,-2.50
2022-12-11T00:13:06.999Z,-2.45
2022-12-11T00:15:33.509Z,-2.55
2022-12-11T00:18:00.165Z,-2.28
2022-12-11T00:20:27.191Z,-2.17
2022-12-11T00:22:56.146Z,-2.19
2022-12-11T00:25:22.660Z,-2.16
2022-12-11T00:27:53.944Z,-2.17
2022-12-11T00:30:20.455Z,-2.19
2022-12-11T00:32:49.978Z,-2.16
2022-12-11T00:35:18.976Z,-2.19
2022-12-11T00:37:47.979Z,-2.24
2022-12-11T00:40:14.544Z,-2.28
2022-12-11T00:42:43.312Z,-2.29
2022-12-11T00:45:10.527Z,-2.32
2022-12-11T00:47:42.143Z,-2.37
2022-12-11T00:50:09.362Z,-2.31
2022-12-11T00:52:38.856Z,-2.39
2022-12-11T00:55:10.484Z,-2.46
2022-12-11T00:57:37.334Z,-2.54
2022-12-11T01:00:08.874Z,-2.63
2022-12-11T01:02:35.425Z,-2.61
2022-12-11T01:05:04.506Z,-2.65
2022-12-11T01:07:31.075Z,-2.55
2022-12-11T01:10:16.162Z,-2.49
2022-12-11T01:12:45.067Z,-2.49
2022-12-11T01:15:12.394Z,-2.54
2022-12-11T01:17:40.025Z,-2.53
2022-12-11T01:20:10.030Z,-2.61
2022-12-11T01:22:36.566Z,-2.70
2022-12-11T01:25:03.502Z,-2.67
2022-12-11T01:27:30.023Z,-2.65
2022-12-11T01:29:58.918Z,-2.71
2022-12-11T01:32:27.817Z,-2.61
2022-12-11T01:34:59.234Z,-2.59
2022-12-11T01:37:28.297Z,-2.54
2022-12-11T01:39:57.569Z,-2.50
2022-12-11T01:42:25.220Z,-2.46
2022-12-11T01:44:54.522Z,-2.48
2022-12-11T01:47:25.946Z,-2.51
2022-12-11T01:49:52.504Z,-2.51
2022-12-11T01:52:22.195Z,-2.42
2022-12-11T01:54:51.475Z,-2.36
2022-12-11T01:57:20.217Z,-2.36
2022-12-11T01:59:47.283Z,-2.31
2022-12-11T02:02:26.314Z,-2.32
2022-12-11T02:04:55.242Z,-2.32
2022-12-11T02:07:22.180Z,-2.37
2022-12-11T02:09:52.227Z,-2.43
2022-12-11T02:12:24.766Z,-2.45
2022-12-11T02:15:05.403Z,-2.44
2022-12-11T02:17:51.125Z,-2.49
2022-12-11T02:20:40.765Z,-2.58
2022-12-11T02:23:13.290Z,-2.68
2022-12-11T02:26:17.042Z,-2.84
2022-12-11T02:28:53.475Z,-2.86
2022-12-11T02:31:41.488Z,-2.89
2022-12-11T02:34:32.740Z,-2.89
2022-12-11T02:37:04.335Z,-3.03
2022-12-11T02:39:33.737Z,-3.24
2022-12-11T02:42:04.382Z,-3.34
2022-12-11T02:44:37.164Z,-3.40
2022-12-11T02:47:07.342Z,-3.50
2022-12-11T02:49:34.189Z,-3.48
2022-12-11T02:52:06.020Z,-3.51
2022-12-11T02:54:39.842Z,-3.39
2022-12-11T02:57:11.949Z,-3.48
2022-12-11T02:59:44.156Z,-3.53
2022-12-11T03:02:15.572Z,-3.59
2022-12-11T03:04:45.430Z,-3.76
2022-12-11T03:07:23.600Z,-3.56
2022-12-11T03:09:51.067Z,-3.62
2022-12-11T03:12:22.710Z,-3.95
2022-12-11T03:14:50.325Z,-3.67
2022-12-11T03:17:24.484Z,-3.66
2022-12-11T03:20:21.527Z,-3.62
2022-12-11T03:22:59.119Z,-3.50
2022-12-11T03:25:54.754Z,-3.48
2022-12-11T03:28:25.521Z,-3.40
2022-12-11T03:30:56.567Z,-3.40
2022-12-11T03:33:36.561Z,-3.33
2022-12-11T03:36:07.721Z,-3.28
2022-12-11T03:38:49.337Z,-3.32
2022-12-11T03:41:19.265Z,-3.30
2022-12-11T03:43:47.215Z,-3.34
2022-12-11T03:46:16.111Z,-3.20
2022-12-11T03:48:47.672Z,-3.13
2022-12-11T03:51:17.168Z,-3.11
2022-12-11T03:53:49.944Z,-3.04
2022-12-11T03:56:23.967Z,-2.97
2022-12-11T03:58:50.665Z,-2.91
2022-12-11T04:01:17.288Z,-2.94
2022-12-11T04:03:43.857Z,-3.13
2022-12-11T04:06:10.387Z,-3.10
2022-12-11T04:08:36.913Z,-3.16
2022-12-11T04:11:23.406Z,-3.44
2022-12-11T04:14:09.896Z,-3.46
2022-12-11T04:16:38.759Z,-3.64
2022-12-11T04:19:24.471Z,-3.58
2022-12-11T04:22:09.508Z,-3.64
2022-12-11T04:24:38.357Z,-3.71
2022-12-11T04:27:07.252Z,-3.74
2022-12-11T04:29:38.899Z,-3.77
2022-12-11T04:32:05.551Z,-3.88
2022-12-11T04:34:34.187Z,-3.97
2022-12-11T04:37:00.727Z,-3.96
2022-12-11T04:39:31.880Z,-4.09
2022-12-11T04:41:58.405Z,-4.14
2022-12-11T04:44:24.937Z,-4.27
2022-12-11T04:46:51.516Z,-4.34
2022-12-11T04:49:20.427Z,-4.33
2022-12-11T04:51:49.357Z,-4.47
2022-12-11T04:54:15.913Z,-4.51
2022-12-11T04:56:45.390Z,-4.66
2022-12-11T04:59:11.936Z,-4.83
2022-12-11T05:01:38.629Z,-4.74
2022-12-11T05:04:10.088Z,-4.73
2022-12-11T05:06:39.114Z,-4.79
2022-12-11T05:09:08.880Z,-4.60
2022-12-11T05:11:36.409Z,-4.51
2022-12-11T05:14:02.984Z,-4.63
2022-12-11T05:16:34.341Z,-4.88
2022-12-11T05:19:03.432Z,-4.83
2022-12-11T05:21:34.860Z,-4.70
2022-12-11T05:24:04.470Z,-4.97
2022-12-11T05:26:33.298Z,-4.82
2022-12-11T05:29:05.520Z,-4.82
2022-12-11T05:31:32.304Z,-5.02
2022-12-11T05:34:01.084Z,-5.01
2022-12-11T05:36:32.667Z,-4.81
2022-12-11T05:39:00.809Z,-4.72
2022-12-11T05:41:30.230Z,-4.68
2022-12-11T05:43:56.862Z,-4.65
2022-12-11T05:46:26.166Z,-5.32
2022-12-11T05:48:55.559Z,-5.02
2022-12-11T05:51:22.269Z,-4.87
2022-12-11T05:53:51.111Z,-4.88
2022-12-11T05:56:22.966Z,-4.93
2022-12-11T05:58:50.285Z,-4.99
2022-12-11T06:01:20.786Z,-4.99
2022-12-11T06:03:47.908Z,-4.95
2022-12-11T06:06:17.183Z,-4.98
2022-12-11T06:08:45.891Z,-4.95
2022-12-11T06:11:15.644Z,-4.98
2022-12-11T06:13:43.889Z,-5.00
2022-12-11T06:16:10.768Z,-4.99
2022-12-11T06:18:42.989Z,-4.96
2022-12-11T06:21:14.194Z,-4.89
2022-12-11T06:23:41.731Z,-4.72
2022-12-11T06:26:09.121Z,-4.65
2022-12-11T06:28:35.838Z,-4.58
2022-12-11T06:31:08.428Z,-4.57
2022-12-11T06:33:35.920Z,-4.57
2022-12-11T06:36:19.990Z,-4.56
2022-12-11T06:38:47.803Z,-4.66
2022-12-11T06:41:14.799Z,-4.77
2022-12-11T06:43:42.939Z,-4.87
2022-12-11T06:46:15.563Z,-5.00
2022-12-11T06:48:45.424Z,-5.09
2022-12-11T06:51:18.298Z,-5.02
2022-12-11T06:53:47.592Z,-5.15
2022-12-11T06:56:18.896Z,-5.20
2022-12-11T06:58:47.862Z,-5.17
2022-12-11T07:01:26.047Z,-5.09
2022-12-11T07:03:57.505Z,-5.12
2022-12-11T07:06:25.973Z,-5.23
2022-12-11T07:08:56.243Z,-5.35
2022-12-11T07:11:30.073Z,-5.50
2022-12-11T07:14:01.632Z,-5.44
2022-12-11T07:16:30.389Z,-5.33
2022-12-11T07:18:56.935Z,-5.32
2022-12-11T07:21:25.958Z,-5.23
2022-12-11T07:23:52.495Z,-5.19
2022-12-11T07:26:21.048Z,-5.13
2022-12-11T07:28:47.696Z,-5.16
2022-12-11T07:31:18.527Z,-5.13
2022-12-11T07:33:48.620Z,-5.22
2022-12-11T07:36:17.670Z,-5.26
2022-12-11T07:38:47.203Z,-5.08
2022-12-11T07:41:15.494Z,-4.90
2022-12-11T07:43:45.460Z,-5.06
2022-12-11T07:46:21.245Z,-5.02
2022-12-11T07:48:50.863Z,-5.00
2022-12-11T07:51:22.866Z,-4.96
2022-12-11T07:53:50.674Z,-4.77
2022-12-11T07:56:20.862Z,-4.77
2022-12-11T07:58:50.421Z,-4.72
2022-12-11T08:01:20.072Z,-4.68
2022-12-11T08:03:47.031Z,-4.46
2022-12-11T08:06:14.120Z,-4.30
2022-12-11T08:08:44.277Z,-4.34
2022-12-11T08:11:15.340Z,-4.01
2022-12-11T08:13:44.697Z,-3.78
2022-12-11T08:16:14.453Z,-3.81
2022-12-11T08:18:44.575Z,-3.57
2022-12-11T08:21:16.966Z,-3.51
2022-12-11T08:23:44.036Z,-3.34
2022-12-11T08:26:17.045Z,-3.04
2022-12-11T08:28:44.669Z,-3.14
2022-12-11T08:31:15.841Z,-3.21
2022-12-11T08:33:42.744Z,-3.41
2022-12-11T08:36:12.038Z,-3.43
2022-12-11T08:38:43.360Z,-3.10
2022-12-11T08:41:24.106Z,-2.87
2022-12-11T08:43:55.284Z,-2.93
2022-12-11T08:46:29.907Z,-2.75
2022-12-11T08:48:57.107Z,-2.41
2022-12-11T08:51:30.896Z,-2.27
2022-12-11T08:54:00.094Z,-2.01
2022-12-11T08:56:29.941Z,-2.33
2022-12-11T08:58:59.129Z,-2.75
2022-12-11T09:01:28.889Z,-2.87
2022-12-11T09:03:57.174Z,-2.61
2022-12-11T09:06:26.477Z,-2.27
2022-12-11T09:08:53.833Z,-2.46
2022-12-11T09:11:29.401Z,-2.58
2022-12-11T09:13:56.080Z,-2.33
2022-12-11T09:16:24.591Z,-1.83
2022-12-11T09:18:56.041Z,-1.42
2022-12-11T09:21:25.816Z,-1.52
2022-12-11T09:24:00.017Z,-1.99
2022-12-11T09:26:32.402Z,-2.28
2022-12-11T09:29:03.498Z,-2.13
2022-12-11T09:31:33.199Z,-2.22
2022-12-11T09:34:02.912Z,-2.34
2022-12-11T09:36:32.507Z,-2.23
2022-12-11T09:39:07.100Z,-1.82
2022-12-11T09:41:42.762Z,-2.23
2022-12-11T09:44:20.127Z,-2.55
2022-12-11T09:46:47.513Z,-2.67
2022-12-11T09:49:28.870Z,-2.75
2022-12-11T09:52:23.648Z,-2.76
2022-12-11T09:54:57.762Z,-2.85
2022-12-11T09:57:43.146Z,-3.03
2022-12-11T10:00:24.755Z,-2.73
2022-12-11T10:02:56.791Z,-2.48
2022-12-11T10:05:52.601Z,-2.46
2022-12-11T10:08:38.522Z,-2.33
2022-12-11T10:11:29.832Z,-2.65
2022-12-11T10:13:59.334Z,-2.22
2022-12-11T10:16:46.231Z,-2.02
2022-12-11T10:19:28.995Z,-1.91
2022-12-11T10:21:56.659Z,-2.32
2022-12-11T10:25:09.893Z,-2.11
2022-12-11T10:27:38.370Z,-2.09
2022-12-11T10:30:30.399Z,-2.21
2022-12-11T10:33:21.619Z,-1.98
2022-12-11T10:35:48.167Z,-1.97
2022-12-11T10:38:17.382Z,-1.77
2022-12-11T10:40:55.853Z,-1.54
2022-12-11T10:43:33.557Z,-1.79
2022-12-11T10:46:00.245Z,-1.72
2022-12-11T10:48:29.182Z,-2.10
2022-12-11T10:51:00.123Z,-2.04
2022-12-11T10:53:30.473Z,-2.17
2022-12-11T10:55:58.637Z,-1.95
2022-12-11T10:58:34.243Z,-1.63
2022-12-11T11:01:24.695Z,-1.70
2022-12-11T11:04:06.999Z,-1.72
2022-12-11T11:06:34.119Z,-1.67
2022-12-11T11:09:01.789Z,-1.76
2022-12-11T11:11:34.007Z,-1.46
2022-12-11T11:14:21.128Z,-1.56
2022-12-11T11:16:52.522Z,-1.42
2022-12-11T11:19:28.467Z,-1.29
2022-12-11T11:22:16.559Z,-1.24
2022-12-11T11:24:55.868Z,-1.67
2022-12-11T11:27:37.088Z,-1.68
2022-12-11T11:30:08.393Z,-1.43
2022-12-11T11:32:38.841Z,-1.04
2022-12-11T11:35:18.970Z,-1.07
2022-12-11T11:37:53.654Z,-0.80
2022-12-11T11:40:27.475Z,-1.30
2022-12-11T11:43:16.075Z,-1.27
2022-12-11T11:45:51.848Z,-0.47
2022-12-11T11:48:52.055Z,-0.58
2022-12-11T11:51:33.861Z,-0.17
2022-12-11T11:54:05.685Z,-0.65
2022-12-11T11:56:38.843Z,-0.83
2022-12-11T11:59:05.374Z,-0.92
2022-12-11T12:01:34.104Z,-1.07
2022-12-11T12:04:02.594Z,-0.92
2022-12-11T12:07:04.448Z,-1.18
2022-12-11T12:09:41.539Z,-1.08
2022-12-11T12:12:28.552Z,-1.06
2022-12-11T12:15:09.775Z,-1.02
2022-12-11T12:17:55.767Z,-1.18
2022-12-11T12:20:43.243Z,-0.84
2022-12-11T12:23:18.624Z,-0.99
2022-12-11T12:26:17.175Z,-0.95
2022-12-11T12:29:04.380Z,-1.17
2022-12-11T12:31:52.412Z,-1.36
2022-12-11T12:34:43.586Z,-1.04
2022-12-11T12:37:44.043Z,-1.30
2022-12-11T12:40:29.361Z,-1.26
2022-12-11T12:43:14.731Z,-1.18
2022-12-11T12:46:10.716Z,-1.22
2022-12-11T12:48:42.371Z,-0.98
2022-12-11T12:51:15.045Z,-1.10
2022-12-11T12:53:49.910Z,-1.01
2022-12-11T12:56:19.678Z,-1.05
2022-12-11T12:58:46.465Z,-1.01
2022-12-11T13:01:13.019Z,-1.20
2022-12-11T13:03:50.973Z,-1.37
2022-12-11T13:06:30.512Z,-1.37
2022-12-11T13:08:57.985Z,-1.11
2022-12-11T13:11:36.365Z,-0.95
2022-12-11T13:14:04.770Z,-0.87
2022-12-11T13:16:44.639Z,-0.72
2022-12-11T13:19:42.267Z,-1.12
2022-12-11T13:22:12.341Z,-1.02
2022-12-11T13:25:02.189Z,-0.98
2022-12-11T13:27:34.727Z,-1.04
2022-12-11T13:30:25.468Z,-1.01
2022-12-11T13:33:17.886Z,-1.23
2022-12-11T13:35:47.929Z,-1.46
2022-12-11T13:38:20.823Z,-1.29
2022-12-11T13:40:56.898Z,-1.35
2022-12-11T13:43:30.208Z,-1.45
2022-12-11T13:46:21.117Z,-1.43
2022-12-11T13:48:54.253Z,-1.46
2022-12-11T13:51:24.370Z,-1.28
2022-12-11T13:54:03.601Z,-1.49
2022-12-11T13:56:30.276Z,-1.49
2022-12-11T13:58:56.819Z,-1.53
2022-12-11T14:01:32.146Z,-1.42
2022-12-11T14:04:07.588Z,-1.57
2022-12-11T14:06:35.750Z,-1.66
2022-12-11T14:09:05.707Z,-1.60
2022-12-11T14:11:46.076Z,-1.55
2022-12-11T14:14:22.401Z,-1.48
2022-12-11T14:16:53.827Z,-1.51
2022-12-11T14:19:24.863Z,-1.54
2022-12-11T14:22:22.265Z,-1.52
2022-12-11T14:24:51.745Z,-1.45
2022-12-11T14:27:21.647Z,-1.35
2022-12-11T14:29:49.371Z,-1.54
2022-12-11T14:32:43.328Z,-1.52
2022-12-11T14:35:25.528Z,-1.81
2022-12-11T14:37:55.663Z,-1.81
2022-12-11T14:40:28.454Z,-1.86
2022-12-11T14:43:19.812Z,-1.83
2022-12-11T14:45:53.180Z,-1.97
2022-12-11T14:48:27.064Z,-1.86
2022-12-11T14:50:57.903Z,-1.88
2022-12-11T14:53:31.501Z,-1.93
2022-12-11T14:56:02.436Z,-2.09
2022-12-11T14:58:32.453Z,-2.22
2022-12-11T15:01:02.067Z,-2.14
2022-12-11T15:03:39.285Z,-2.20
2022-12-11T15:06:43.985Z,-2.31
2022-12-11T15:09:20.110Z,-2.33
2022-12-11T15:11:49.123Z,-2.45
2022-12-11T15:14:19.335Z,-2.45
2022-12-11T15:16:47.818Z,-2.56
2022-12-11T15:19:26.624Z,-2.70
2022-12-11T15:21:55.975Z,-2.84
2022-12-11T15:24:38.903Z,-2.84
2022-12-11T15:27:06.295Z,-3.00
2022-12-11T15:29:40.256Z,-3.05
2022-12-11T15:32:09.942Z,-2.99
2022-12-11T15:34:53.440Z,-2.93
2022-12-11T15:37:33.868Z,-2.83
2022-12-11T15:40:02.382Z,-2.75
2022-12-11T15:42:32.075Z,-2.76
2022-12-11T15:44:59.906Z,-2.73
2022-12-11T15:47:31.134Z,-2.71
2022-12-11T15:50:07.433Z,-2.70
2022-12-11T15:52:36.240Z,-2.75
2022-12-11T15:55:06.682Z,-2.79
2022-12-11T15:57:33.259Z,-2.84
2022-12-11T15:59:59.972Z,-2.92
2022-12-11T16:02:29.100Z,-2.91
2022-12-11T16:04:55.668Z,-2.96
2022-12-11T16:07:24.924Z,-2.98
2022-12-11T16:09:52.781Z,-3.02
2022-12-11T16:12:22.130Z,-3.10
2022-12-11T16:14:51.161Z,-3.08
2022-12-11T16:17:25.026Z,-3.14
2022-12-11T16:19:54.308Z,-3.18
2022-12-11T16:22:23.436Z,-3.16
2022-12-11T16:24:56.632Z,-3.22
2022-12-11T16:27:23.856Z,-3.26
2022-12-11T16:29:52.482Z,-3.27
2022-12-11T16:32:19.810Z,-3.23
2022-12-11T16:34:46.444Z,-3.25
2022-12-11T16:37:14.149Z,-3.31
2022-12-11T16:39:42.616Z,-3.25
2022-12-11T16:42:09.149Z,-3.19
2022-12-11T16:44:38.421Z,-3.19
2022-12-11T16:47:11.248Z,-3.16
2022-12-11T16:49:37.795Z,-3.18
2022-12-11T16:52:07.499Z,-3.15
2022-12-11T16:54:38.947Z,-3.24
2022-12-11T16:57:05.532Z,-3.28
2022-12-11T16:59:37.453Z,-3.22
2022-12-11T17:02:06.745Z,-3.19
2022-12-11T17:04:33.287Z,-3.20
2022-12-11T17:07:06.908Z,-3.27
2022-12-11T17:09:35.156Z,-3.27
2022-12-11T17:12:05.141Z,-3.36
2022-12-11T17:14:34.503Z,-3.41
2022-12-11T17:17:01.044Z,-3.44
2022-12-11T17:19:32.044Z,-3.47
2022-12-11T17:21:59.082Z,-3.50
2022-12-11T17:24:30.411Z,-3.53
2022-12-11T17:26:57.037Z,-3.51
2022-12-11T17:29:23.658Z,-3.61
2022-12-11T17:31:50.246Z,-3.68
2022-12-11T17:34:19.217Z,-3.71
2022-12-11T17:36:48.382Z,-3.64
2022-12-11T17:39:14.962Z,-3.65
2022-12-11T17:41:43.717Z,-3.65
2022-12-11T17:44:10.530Z,-3.62
2022-12-11T17:46:42.048Z,-3.61
2022-12-11T17:49:09.790Z,-3.62
2022-12-11T17:51:36.629Z,-3.63
2022-12-11T17:54:03.319Z,-3.63
2022-12-11T17:56:29.826Z,-3.61
2022-12-11T17:58:58.612Z,-3.62
2022-12-11T18:01:27.453Z,-3.58
2022-12-11T18:03:54.141Z,-3.58
2022-12-11T18:06:23.178Z,-3.52
2022-12-11T18:08:52.119Z,-3.53
2022-12-11T18:11:22.108Z,-3.46
2022-12-11T18:13:52.665Z,-3.51
2022-12-11T18:16:27.869Z,-3.52
2022-12-11T18:18:54.586Z,-3.73
2022-12-11T18:21:24.030Z,-3.75
2022-12-11T18:23:55.939Z,-3.89
2022-12-11T18:26:27.767Z,-3.87
2022-12-11T18:28:56.868Z,-3.94
2022-12-11T18:31:29.271Z,-3.94
2022-12-11T18:34:01.045Z,-4.03
2022-12-11T18:36:30.815Z,-4.10
2022-12-11T18:38:57.599Z,-4.23
2022-12-11T18:41:27.023Z,-4.22
2022-12-11T18:43:56.045Z,-4.29
2022-12-11T18:46:22.724Z,-4.21
2022-12-11T18:48:51.909Z,-4.39
2022-12-11T18:51:24.838Z,-4.34
2022-12-11T18:53:52.453Z,-4.40
2022-12-11T18:56:22.325Z,-4.52
2022-12-11T18:58:49.353Z,-4.56
2022-12-11T19:01:20.434Z,-4.49
2022-12-11T19:03:47.884Z,-4.64
2022-12-11T19:06:18.053Z,-4.79
2022-12-11T19:08:45.141Z,-4.61
2022-12-11T19:11:19.359Z,-4.59
2022-12-11T19:13:49.332Z,-4.66
2022-12-11T19:16:29.785Z,-4.68
2022-12-11T19:18:58.901Z,-4.65
2022-12-11T19:21:25.551Z,-4.65
2022-12-11T19:23:52.107Z,-4.81
2022-12-11T19:26:21.127Z,-4.91
2022-12-11T19:28:48.797Z,-4.90
2022-12-11T19:31:18.188Z,-4.85
2022-12-11T19:33:47.144Z,-4.78
2022-12-11T19:36:17.115Z,-4.83
2022-12-11T19:38:47.197Z,-4.89
2022-12-11T19:41:22.223Z,-4.88
2022-12-11T19:43:50.399Z,-4.92
2022-12-11T19:46:18.006Z,-4.92
2022-12-11T19:48:45.089Z,-5.10
2022-12-11T19:51:19.420Z,-5.00
2022-12-11T19:53:46.698Z,-5.05
2022-12-11T19:56:14.561Z,-5.09
2022-12-11T19:58:42.085Z,-5.13
2022-12-11T20:01:12.406Z,-5.18
2022-12-11T20:03:42.091Z,-5.18
2022-12-11T20:06:10.087Z,-5.37
2022-12-11T20:08:44.866Z,-5.21
2022-12-11T20:11:17.573Z,-5.35
2022-12-11T20:13:55.467Z,-5.35
2022-12-11T20:16:46.395Z,-5.72
2022-12-11T20:19:14.101Z,-5.62
2022-12-11T20:21:48.120Z,-5.52
2022-12-11T20:24:17.164Z,-5.58
2022-12-11T20:26:43.834Z,-5.59
2022-12-11T20:29:12.411Z,-5.56
2022-12-11T20:31:42.167Z,-5.67
2022-12-11T20:34:08.850Z,-5.56
2022-12-11T20:36:37.898Z,-5.37
2022-12-11T20:39:05.153Z,-5.37
2022-12-11T20:41:33.932Z,-5.39
2022-12-11T20:44:02.822Z,-5.32
2022-12-11T20:46:29.376Z,-5.31
2022-12-11T20:48:58.648Z,-5.31
2022-12-11T20:51:26.598Z,-5.33
2022-12-11T20:54:01.315Z,-5.23
2022-12-11T20:56:31.809Z,-5.14
2022-12-11T20:59:03.103Z,-5.08
2022-12-11T21:01:38.561Z,-5.08
2022-12-11T21:04:07.330Z,-5.04
2022-12-11T21:06:38.752Z,-4.99
2022-12-11T21:09:08.667Z,-5.01
2022-12-11T21:11:35.715Z,-4.96
2022-12-11T21:14:04.971Z,-4.94
2022-12-11T21:16:31.865Z,-4.90
2022-12-11T21:18:58.970Z,-4.94
2022-12-11T21:21:26.465Z,-4.89
2022-12-11T21:23:55.319Z,-4.77
2022-12-11T21:26:26.799Z,-4.82
2022-12-11T21:28:58.107Z,-4.81
2022-12-11T21:31:25.182Z,-4.72
2022-12-11T21:33:54.892Z,-4.70
2022-12-11T21:36:24.454Z,-4.68
2022-12-11T21:38:51.215Z,-4.82
2022-12-11T21:41:24.121Z,-4.81
2022-12-11T21:45:06.948Z,-4.88
2022-12-11T21:46:41.906Z,-4.95
2022-12-11T21:49:13.018Z,-4.86
2022-12-11T21:51:47.082Z,-4.60
2022-12-11T21:54:16.097Z,-4.50
2022-12-11T21:56:43.276Z,-4.48
2022-12-11T21:59:12.359Z,-4.48
2022-12-11T22:01:45.944Z,-4.54
2022-12-11T22:04:15.912Z,-4.49
2022-12-11T22:06:47.244Z,-4.49
2022-12-11T22:09:15.402Z,-4.52
2022-12-11T22:11:42.826Z,-4.51
2022-12-11T22:14:14.550Z,-4.52
2022-12-11T22:16:41.562Z,-4.53
2022-12-11T22:19:08.267Z,-4.49
2022-12-11T22:21:38.397Z,-4.44
2022-12-11T22:24:05.169Z,-4.51
2022-12-11T22:26:35.174Z,-4.44
2022-12-11T22:29:04.129Z,-4.57
2022-12-11T22:31:31.015Z,-4.55
2022-12-11T22:33:57.582Z,-4.36
2022-12-11T22:36:25.448Z,-4.51
2022-12-11T22:38:52.915Z,-4.82
2022-12-11T22:41:25.075Z,-4.54
2022-12-11T22:43:52.291Z,-4.65
2022-12-11T22:46:21.503Z,-4.81
2022-12-11T22:48:50.752Z,-4.84
2022-12-11T22:51:18.155Z,-4.83
2022-12-11T22:53:46.923Z,-4.56
2022-12-11T22:56:14.174Z,-4.92
2022-12-11T22:58:44.073Z,-4.79
2022-12-11T23:01:19.698Z,-4.67
2022-12-11T23:03:49.296Z,-4.39
2022-12-11T23:06:21.364Z,-4.69
2022-12-11T23:08:48.067Z,-4.52
2022-12-11T23:11:26.552Z,-4.39
2022-12-11T23:13:56.356Z,-4.31
2022-12-11T23:16:27.254Z,-4.20
2022-12-11T23:18:58.211Z,-4.38
2022-12-11T23:21:28.842Z,-4.60
2022-12-11T23:24:00.623Z,-4.40
2022-12-11T23:26:30.530Z,-4.30
2022-12-11T23:29:00.167Z,-4.60
2022-12-11T23:31:27.473Z,-4.65
2022-12-11T23:33:56.793Z,-4.53
2022-12-11T23:36:27.681Z,-4.50
2022-12-11T23:38:55.140Z,-4.54
2022-12-11T23:41:22.303Z,-4.58
2022-12-11T23:43:51.107Z,-4.41
2022-12-11T23:46:20.394Z,-4.33
2022-12-11T23:48:49.274Z,-4.25
2022-12-11T23:51:20.843Z,-4.23
2022-12-11T23:53:47.912Z,-4.41
2022-12-11T23:56:20.448Z,-4.30
2022-12-11T23:58:47.229Z,-4.11
